createdAt,value
2019-04-11T00:00:33.251Z,99.90
2019-04-11T00:03:03.016Z,99.90
2019-04-11T00:05:31.785Z,99.90
2019-04-11T00:08:01.747Z,99.90
2019-04-11T00:10:31.303Z,99.90
2019-04-11T00:13:01.123Z,99.90
2019-04-11T00:15:30.702Z,99.90
2019-04-11T00:18:00.582Z,99.90
2019-04-11T00:20:29.322Z,99.90
2019-04-11T00:22:57.990Z,99.90
2019-04-11T00:25:27.470Z,99.90
2019-04-11T00:27:57.218Z,99.90
2019-04-11T00:30:26.274Z,99.90
2019-04-11T00:32:55.977Z,99.90
2019-04-11T00:35:25.794Z,99.90
2019-04-11T00:37:54.502Z,99.90
2019-04-11T00:40:23.208Z,99.90
2019-04-11T00:42:52.635Z,99.90
2019-04-11T00:45:21.303Z,99.90
2019-04-11T00:47:50.166Z,99.90
2019-04-11T00:50:19.094Z,99.90
2019-04-11T00:52:47.894Z,99.90
2019-04-11T00:55:17.544Z,99.90
2019-04-11T00:57:47.176Z,99.90
2019-04-11T01:00:16.898Z,99.90
2019-04-11T01:02:45.593Z,99.90
2019-04-11T01:05:15.146Z,99.90
2019-04-11T01:07:43.921Z,99.90
2019-04-11T01:10:12.553Z,99.90
2019-04-11T01:12:41.250Z,99.90
2019-04-11T01:15:11.743Z,99.90
2019-04-11T01:17:41.273Z,99.90
2019-04-11T01:20:11.251Z,99.90
2019-04-11T01:22:40.505Z,99.90
2019-04-11T01:25:10.364Z,99.90
2019-04-11T01:27:40.008Z,99.90
2019-04-11T01:30:12.013Z,99.90
2019-04-11T01:32:40.758Z,99.90
2019-04-11T01:35:09.502Z,99.90
2019-04-11T01:37:39.843Z,99.90
2019-04-11T01:40:09.807Z,99.90
2019-04-11T01:42:39.653Z,99.90
2019-04-11T01:45:09.558Z,99.90
2019-04-11T01:47:42.755Z,99.90
2019-04-11T01:50:13.183Z,99.90
2019-04-11T01:52:42.476Z,99.90
2019-04-11T01:55:12.244Z,99.90
2019-04-11T01:57:43.101Z,99.90
2019-04-11T02:00:14.158Z,99.90
2019-04-11T02:02:44.465Z,99.90
2019-04-11T02:05:14.808Z,99.90
2019-04-11T02:07:43.498Z,99.90
2019-04-11T02:10:12.718Z,99.90
2019-04-11T02:12:41.570Z,99.90
2019-04-11T02:15:10.434Z,99.90
2019-04-11T02:17:39.142Z,99.90
2019-04-11T02:20:09.143Z,99.90
2019-04-11T02:22:42.461Z,99.90
2019-04-11T02:25:12.819Z,99.90
2019-04-11T02:27:42.259Z,99.90
2019-04-11T02:30:13.732Z,99.90
2019-04-11T02:32:42.864Z,99.90
2019-04-11T02:35:13.459Z,99.90
2019-04-11T02:37:44.454Z,99.90
2019-04-11T02:40:13.571Z,99.90
2019-04-11T02:42:43.327Z,99.90
2019-04-11T02:45:25.081Z,99.90
2019-04-11T02:47:46.192Z,99.90
2019-04-11T02:50:18.647Z,99.90
2019-04-11T02:52:44.515Z,99.90
2019-04-11T02:55:14.456Z,99.90
2019-04-11T02:57:43.214Z,99.90
2019-04-11T03:00:13.094Z,99.90
2019-04-11T03:02:44.209Z,99.90
2019-04-11T03:05:13.730Z,99.90
2019-04-11T03:07:42.777Z,99.90
2019-04-11T03:10:13.774Z,99.90
2019-04-11T03:12:43.691Z,99.90
2019-04-11T03:15:27.432Z,99.90
2019-04-11T03:17:44.577Z,99.90
2019-04-11T03:20:23.940Z,99.90
2019-04-11T03:22:44.921Z,99.90
2019-04-11T03:25:13.819Z,99.90
2019-04-11T03:27:43.325Z,99.90
2019-04-11T03:30:19.337Z,99.90
2019-04-11T03:33:52.472Z,99.90
2019-04-11T03:36:07.010Z,99.90
2019-04-11T03:38:07.607Z,99.90
2019-04-11T03:40:30.413Z,99.90
2019-04-11T03:42:59.977Z,99.90
2019-04-11T03:45:38.572Z,99.90
2019-04-11T03:48:02.393Z,99.90
2019-04-11T03:50:20.904Z,99.90
2019-04-11T03:52:47.363Z,99.90
2019-04-11T03:55:16.499Z,99.90
2019-04-11T03:57:46.841Z,99.90
2019-04-11T04:00:15.768Z,99.90
2019-04-11T04:02:46.586Z,99.90
2019-04-11T04:05:15.404Z,99.90
2019-04-11T04:07:44.476Z,99.90
2019-04-11T04:10:15.669Z,99.90
2019-04-11T04:12:45.301Z,99.90
2019-04-11T04:15:37.518Z,99.90
2019-04-11T04:17:55.102Z,99.90
2019-04-11T04:20:42.415Z,99.90
2019-04-11T04:23:14.183Z,99.90
2019-04-11T04:25:46.696Z,99.90
2019-04-11T04:28:14.243Z,99.90
2019-04-11T04:30:45.302Z,99.90
2019-04-11T04:33:14.453Z,99.90
2019-04-11T04:35:44.800Z,99.90
2019-04-11T04:38:13.801Z,99.90
2019-04-11T04:41:00.325Z,99.90
2019-04-11T04:43:18.778Z,99.90
2019-04-11T04:46:07.421Z,99.90
2019-04-11T04:48:20.520Z,99.90
2019-04-11T04:50:48.921Z,99.90
2019-04-11T04:53:20.201Z,99.90
2019-04-11T04:55:50.195Z,99.90
2019-04-11T04:58:20.802Z,99.90
2019-04-11T05:00:53.270Z,99.90
2019-04-11T05:03:20.090Z,99.90
2019-04-11T05:05:48.824Z,99.90
2019-04-11T05:08:18.581Z,99.90
2019-04-11T05:10:47.292Z,99.90
2019-04-11T05:13:17.198Z,99.90
2019-04-11T05:15:45.939Z,99.90
2019-04-11T05:18:17.336Z,99.90
2019-04-11T05:20:46.111Z,99.90
2019-04-11T05:23:14.960Z,99.90
2019-04-11T05:25:44.607Z,99.90
2019-04-11T05:28:13.985Z,99.90
2019-04-11T05:30:42.595Z,99.90
2019-04-11T05:33:11.617Z,99.90
2019-04-11T05:35:40.173Z,99.90
2019-04-11T05:38:08.812Z,99.90
2019-04-11T05:40:37.728Z,99.90
2019-04-11T05:43:06.386Z,99.90
2019-04-11T05:45:35.922Z,99.90
2019-04-11T05:48:06.566Z,99.90
2019-04-11T05:50:36.130Z,99.90
2019-04-11T05:53:05.607Z,99.90
2019-04-11T05:55:36.337Z,99.90
2019-04-11T05:58:11.018Z,99.90
2019-04-11T06:00:50.731Z,99.90
2019-04-11T06:03:19.581Z,99.90
2019-04-11T06:05:49.957Z,99.90
2019-04-11T06:08:24.137Z,99.90
2019-04-11T06:11:07.490Z,99.90
2019-04-11T06:13:40.642Z,99.90
2019-04-11T06:16:10.517Z,99.90
2019-04-11T06:18:50.106Z,99.90
2019-04-11T06:21:32.430Z,99.90
2019-04-11T06:24:20.210Z,99.90
2019-04-11T06:26:51.197Z,99.90
2019-04-11T06:29:31.177Z,99.90
2019-04-11T06:32:10.295Z,99.90
2019-04-11T06:34:58.279Z,99.90
2019-04-11T06:37:29.600Z,99.90
2019-04-11T06:40:00.862Z,99.90
2019-04-11T06:42:31.924Z,99.90
2019-04-11T06:45:02.284Z,99.90
2019-04-11T06:47:38.524Z,99.90
2019-04-11T06:50:09.080Z,99.90
2019-04-11T06:52:39.642Z,99.90
2019-04-11T06:55:10.853Z,99.90
2019-04-11T06:57:42.322Z,99.90
2019-04-11T07:00:12.986Z,99.90
2019-04-11T07:02:55.385Z,99.90
2019-04-11T07:05:26.753Z,99.90
2019-04-11T07:07:57.825Z,99.90
2019-04-11T07:10:31.115Z,99.90
2019-04-11T07:13:07.763Z,99.90
2019-04-11T07:15:38.103Z,99.90
2019-04-11T07:18:24.860Z,99.90
2019-04-11T07:20:56.086Z,99.90
2019-04-11T07:23:44.118Z,99.90
2019-04-11T07:26:23.454Z,99.90
2019-04-11T07:28:54.293Z,99.90
2019-04-11T07:31:38.007Z,99.90
2019-04-11T07:34:08.755Z,99.90
2019-04-11T07:36:55.883Z,99.90
2019-04-11T07:39:26.246Z,99.90
2019-04-11T07:42:00.332Z,99.90
2019-04-11T07:44:32.087Z,99.90
2019-04-11T07:47:17.069Z,99.90
2019-04-11T07:49:40.899Z,99.90
2019-04-11T07:52:13.772Z,99.90
2019-04-11T07:54:43.363Z,99.90
2019-04-11T07:57:14.843Z,99.90
2019-04-11T08:00:00.384Z,99.90
2019-04-11T08:02:43.310Z,99.90
2019-04-11T08:05:23.594Z,99.90
2019-04-11T08:07:57.408Z,99.90
2019-04-11T08:10:33.524Z,99.90
2019-04-11T08:13:03.808Z,97.70
2019-04-11T08:15:43.944Z,98.40
2019-04-11T08:18:14.709Z,98.80
2019-04-11T08:20:57.448Z,93.00
2019-04-11T08:23:26.384Z,83.50
2019-04-11T08:25:57.720Z,82.00
2019-04-11T08:28:26.908Z,86.30
2019-04-11T08:30:57.397Z,91.50
2019-04-11T08:33:28.709Z,93.60
2019-04-11T08:36:03.421Z,94.20
2019-04-11T08:38:34.166Z,93.70
2019-04-11T08:41:17.638Z,93.70
2019-04-11T08:43:47.584Z,95.10
2019-04-11T08:46:37.153Z,94.50
2019-04-11T08:49:07.727Z,94.60
2019-04-11T08:51:36.401Z,94.10
2019-04-11T08:54:17.445Z,94.20
2019-04-11T08:56:46.000Z,94.00
2019-04-11T08:59:34.150Z,91.90
2019-04-11T09:02:02.952Z,92.40
2019-04-11T09:04:46.206Z,92.90
2019-04-11T09:07:17.060Z,93.50
2019-04-11T09:09:47.537Z,92.00
2019-04-11T09:12:16.272Z,92.20
2019-04-11T09:14:55.351Z,91.70
2019-04-11T09:17:26.169Z,92.10
2019-04-11T09:19:57.011Z,91.50
2019-04-11T09:22:42.462Z,91.70
2019-04-11T09:25:12.854Z,91.80
2019-04-11T09:27:43.221Z,91.20
2019-04-11T09:30:30.593Z,91.30
2019-04-11T09:33:09.528Z,90.00
2019-04-11T09:35:51.691Z,88.40
2019-04-11T12:31:13.421Z,68.90
2019-04-11T12:33:52.374Z,69.40
2019-04-11T12:36:23.040Z,68.40
2019-04-11T12:38:54.864Z,67.90
2019-04-11T12:57:40.788Z,65.00
2019-04-11T13:00:22.365Z,66.00
2019-04-11T13:03:00.888Z,64.20
2019-04-11T13:12:42.549Z,63.10
2019-04-11T13:15:18.685Z,64.20
2019-04-11T13:17:48.979Z,63.90
2019-04-11T13:20:35.959Z,65.20
2019-04-11T13:23:06.261Z,64.90
2019-04-11T13:25:39.611Z,64.40
2019-04-11T13:28:08.704Z,64.30
2019-04-11T13:30:41.786Z,64.00
2019-04-11T13:33:15.697Z,63.60
2019-04-11T13:36:02.419Z,64.70
2019-04-11T13:38:32.739Z,63.70
2019-04-11T13:41:20.244Z,63.90
2019-04-11T13:44:15.530Z,64.20
2019-04-11T13:46:48.959Z,63.90
2019-04-11T13:49:28.149Z,62.90
2019-04-11T13:51:58.411Z,63.00
2019-04-11T13:54:45.271Z,63.60
2019-04-11T13:57:24.504Z,63.00
2019-04-11T14:00:12.910Z,62.90
2019-04-11T14:03:01.315Z,64.10
2019-04-11T14:05:31.652Z,64.80
2019-04-11T14:08:04.079Z,65.50
2019-04-11T14:10:36.654Z,65.60
2019-04-11T14:13:07.071Z,67.30
2019-04-11T14:15:40.520Z,66.10
2019-04-11T14:18:14.596Z,66.50
2019-04-11T14:20:53.696Z,67.30
2019-04-11T14:23:24.068Z,67.20
2019-04-11T14:26:03.875Z,66.40
2019-04-11T14:28:36.874Z,66.20
2019-04-11T14:31:21.936Z,66.80
2019-04-11T14:34:11.264Z,68.40
2019-04-11T14:40:24.891Z,69.60
2019-04-11T14:42:55.424Z,69.40
2019-04-11T14:45:36.579Z,69.90
2019-04-11T14:48:23.459Z,71.70
2019-04-11T14:51:08.995Z,71.90
2019-04-11T14:53:42.071Z,72.90
2019-04-11T14:56:14.936Z,72.40
2019-04-11T14:59:00.917Z,72.80
2019-04-11T15:01:31.002Z,73.30
2019-04-11T15:04:17.697Z,74.80
2019-04-11T15:06:53.891Z,76.70
2019-04-11T15:09:40.493Z,77.70
2019-04-11T15:12:13.417Z,77.70
2019-04-11T15:14:47.778Z,77.80
2019-04-11T15:17:18.339Z,77.00
2019-04-11T15:19:48.620Z,78.10
2019-04-11T15:22:21.291Z,77.90
2019-04-11T15:24:51.471Z,78.40
2019-04-11T15:27:40.671Z,79.70
2019-04-11T15:30:17.399Z,78.10
2019-04-11T15:33:03.650Z,78.50
2019-04-11T15:35:35.676Z,79.40
2019-04-11T15:38:26.904Z,79.50
2019-04-11T15:40:57.348Z,79.40
2019-04-11T15:43:47.386Z,80.90
2019-04-11T15:46:27.899Z,82.10
2019-04-11T15:52:25.008Z,82.50
2019-04-11T15:55:12.995Z,84.80
2019-04-11T15:58:01.594Z,85.00
2019-04-11T16:00:58.597Z,85.50
2019-04-11T16:03:32.733Z,86.20
2019-04-11T16:06:25.783Z,87.30
2019-04-11T16:09:00.564Z,88.50
2019-04-11T16:11:33.861Z,89.10
2019-04-11T16:14:08.342Z,90.10
2019-04-11T16:16:59.739Z,90.60
2019-04-11T16:19:47.877Z,91.20
2019-04-11T16:22:20.420Z,92.00
2019-04-11T16:24:51.281Z,92.60
2019-04-11T16:27:39.890Z,92.90
2019-04-11T16:30:34.627Z,93.30
2019-04-11T16:33:09.070Z,93.50
2019-04-11T16:35:56.908Z,93.50
2019-04-11T16:38:41.914Z,93.40
2019-04-11T16:41:29.727Z,93.90
2019-04-11T16:44:18.358Z,93.80
2019-04-11T16:47:16.299Z,94.30
2019-04-11T16:49:52.381Z,94.70
2019-04-11T16:52:25.966Z,94.40
2019-04-11T16:55:00.568Z,94.70
2019-04-11T16:57:29.360Z,94.70
2019-04-11T16:59:58.580Z,95.00
2019-04-11T17:02:32.000Z,95.60
2019-04-11T17:05:07.559Z,96.10
2019-04-11T17:07:57.997Z,96.40
2019-04-11T17:10:49.296Z,96.50
2019-04-11T17:13:23.758Z,96.40
2019-04-11T17:21:54.906Z,96.80
2019-04-11T17:24:33.183Z,97.20
2019-04-11T17:27:23.765Z,97.40
2019-04-11T17:29:54.707Z,97.20
2019-04-11T17:32:23.620Z,97.40
2019-04-11T17:34:53.227Z,97.20
2019-04-11T17:37:21.950Z,97.10
2019-04-11T17:39:50.583Z,97.30
2019-04-11T17:42:19.215Z,97.40
2019-04-11T17:44:47.870Z,97.80
2019-04-11T17:47:16.561Z,97.90
2019-04-11T17:49:45.238Z,97.90
2019-04-11T17:52:13.999Z,97.90
2019-04-11T17:54:42.827Z,97.90
2019-04-11T17:57:11.431Z,98.10
2019-04-11T17:59:42.115Z,98.30
2019-04-11T18:02:11.180Z,98.30
2019-04-11T18:04:44.106Z,98.50
2019-04-11T18:07:10.129Z,98.40
2019-04-11T18:09:39.409Z,98.50
2019-04-11T18:12:11.395Z,98.50
2019-04-11T18:14:40.398Z,99.20
2019-04-11T18:17:09.027Z,99.10
2019-04-11T18:19:37.743Z,99.20
2019-04-11T18:22:13.437Z,99.30
2019-04-11T18:24:42.717Z,99.40
2019-04-11T18:27:21.548Z,99.80
2019-04-11T18:29:52.527Z,99.80
2019-04-11T18:32:19.673Z,99.80
2019-04-11T18:34:48.372Z,99.80
2019-04-11T18:37:17.209Z,99.90
2019-04-11T18:39:45.963Z,99.90
2019-04-11T18:42:14.693Z,99.90
2019-04-11T18:44:43.525Z,99.90
2019-04-11T18:47:12.362Z,99.90
2019-04-11T18:49:41.088Z,99.90
2019-04-11T18:52:19.144Z,99.90
2019-04-11T18:54:40.256Z,99.90
2019-04-11T18:57:08.958Z,99.90
2019-04-11T18:59:37.678Z,99.90
2019-04-11T19:02:09.876Z,99.90
2019-04-11T19:04:42.034Z,99.90
2019-04-11T19:07:12.971Z,99.90
2019-04-11T19:09:43.438Z,99.90
2019-04-11T19:12:11.051Z,99.90
2019-04-11T19:14:41.062Z,99.90
2019-04-11T19:17:09.725Z,99.90
2019-04-11T19:19:38.309Z,99.90
2019-04-11T19:22:07.276Z,99.90
2019-04-11T19:24:35.996Z,99.90
2019-04-11T19:27:04.894Z,99.90
2019-04-11T19:29:33.682Z,99.90
2019-04-11T19:32:02.804Z,99.90
2019-04-11T19:34:31.705Z,99.90
2019-04-11T19:37:00.321Z,99.90
2019-04-11T19:39:28.989Z,99.90
2019-04-11T19:41:57.711Z,99.90
2019-04-11T19:44:27.826Z,99.90
2019-04-11T19:47:11.851Z,99.90
2019-04-11T19:52:45.904Z,99.90
2019-04-11T19:55:24.637Z,99.90
2019-04-11T19:57:53.510Z,99.90
2019-04-11T20:00:22.207Z,99.90
2019-04-11T20:02:51.855Z,99.90
2019-04-11T20:05:21.502Z,99.90
2019-04-11T20:07:50.262Z,99.90
2019-04-11T20:10:23.406Z,99.90
2019-04-11T20:13:02.946Z,99.90
2019-04-11T20:15:42.096Z,99.90
2019-04-11T20:18:07.770Z,99.90
2019-04-11T20:20:37.702Z,99.90
2019-04-11T20:23:11.668Z,99.90
2019-04-11T20:25:49.938Z,99.90
2019-04-11T20:28:35.127Z,99.90
2019-04-11T20:31:18.980Z,99.90
2019-04-11T20:34:06.763Z,99.90
2019-04-11T20:36:33.370Z,99.90
2019-04-11T20:38:55.160Z,99.90
2019-04-11T20:41:24.007Z,99.90
2019-04-11T20:43:59.256Z,99.90
2019-04-11T20:46:29.867Z,99.90
2019-04-11T20:48:58.638Z,99.90
2019-04-11T20:51:37.037Z,99.90
2019-04-11T20:54:08.016Z,99.90
2019-04-11T20:56:39.913Z,99.90
2019-04-11T20:59:10.068Z,99.90
2019-04-11T21:01:37.317Z,99.90
2019-04-11T21:04:05.977Z,99.90
2019-04-11T21:06:34.581Z,99.90
2019-04-11T21:09:08.172Z,99.90
2019-04-11T21:11:37.274Z,99.90
2019-04-11T21:14:07.596Z,99.90
2019-04-11T21:16:36.524Z,99.90
2019-04-11T21:19:05.312Z,99.90
2019-04-11T21:21:34.195Z,99.90
2019-04-11T21:24:03.495Z,99.90
2019-04-11T21:26:32.143Z,99.90
2019-04-11T21:29:00.762Z,99.90
2019-04-11T21:31:31.079Z,99.90
2019-04-11T21:34:02.226Z,99.90
2019-04-11T21:36:31.746Z,99.90
2019-04-11T21:39:03.895Z,99.90
2019-04-11T21:41:35.978Z,99.90
2019-04-11T21:44:06.074Z,99.90
2019-04-11T21:46:38.142Z,99.90
2019-04-11T21:49:07.037Z,99.90
2019-04-11T21:51:41.385Z,99.90
2019-04-11T21:54:08.034Z,99.90
2019-04-11T21:56:36.730Z,99.90
2019-04-11T21:59:05.445Z,99.90
2019-04-11T22:01:35.059Z,99.90
2019-04-11T22:04:03.770Z,99.90
2019-04-11T22:06:32.442Z,99.90
2019-04-11T22:09:04.796Z,99.90
2019-04-11T22:11:31.511Z,99.90
2019-04-11T22:14:00.143Z,99.90
2019-04-11T22:16:28.840Z,99.90
2019-04-11T22:18:57.418Z,99.90
2019-04-11T22:21:26.039Z,99.90
2019-04-11T22:23:54.913Z,99.90
2019-04-11T22:26:23.532Z,99.90
2019-04-11T22:28:54.922Z,99.90
2019-04-11T22:31:24.746Z,99.90
2019-04-11T22:33:58.531Z,99.90
2019-04-11T22:36:30.737Z,99.90
2019-04-11T22:39:01.092Z,99.90
2019-04-11T22:41:29.360Z,99.90
2019-04-11T22:43:57.917Z,99.90
2019-04-11T22:46:26.496Z,99.90
2019-04-11T22:48:55.062Z,99.90
2019-04-11T22:51:23.747Z,99.90
2019-04-11T22:54:00.301Z,99.90
2019-04-11T22:56:22.743Z,99.90
2019-04-11T22:58:51.563Z,99.90
2019-04-11T23:01:20.590Z,99.90
2019-04-11T23:03:50.846Z,99.90
2019-04-11T23:06:19.486Z,99.90
2019-04-11T23:08:48.953Z,99.90
2019-04-11T23:11:18.164Z,99.90
2019-04-11T23:13:46.859Z,99.90
2019-04-11T23:16:15.546Z,99.90
2019-04-11T23:18:44.901Z,99.90
2019-04-11T23:21:14.904Z,99.90
2019-04-11T23:23:43.694Z,99.90
2019-04-11T23:26:12.423Z,99.90
2019-04-11T23:28:41.042Z,99.90
2019-04-11T23:31:09.612Z,99.90
2019-04-11T23:33:38.160Z,99.90
2019-04-11T23:36:06.722Z,99.90
2019-04-11T23:38:35.278Z,99.90
2019-04-11T23:41:03.948Z,99.90
2019-04-11T23:43:32.500Z,99.90
2019-04-11T23:46:01.042Z,99.90
2019-04-11T23:48:29.646Z,99.90
2019-04-11T23:50:58.279Z,99.90
2019-04-11T23:53:29.079Z,99.90
2019-04-11T23:55:59.971Z,99.90
2019-04-11T23:58:27.306Z,99.90
